sensor_id;sensor_type;location;lat;lon;timestamp;P1;durP1;ratioP1;P2;durP2;ratioP2
22435;SDS011;11385;50.822;4.324;2023-05-18T00:01:09;13.85;;;3.77;;
22435;SDS011;11385;50.822;4.324;2023-05-18T00:03:39;13.22;;;3.20;;
22435;SDS011;11385;50.822;4.324;2023-05-18T00:06:06;16.23;;;4.00;;
22435;SDS011;11385;50.822;4.324;2023-05-18T00:08:34;10.50;;;2.80;;
22435;SDS011;11385;50.822;4.324;2023-05-18T00:11:02;13.13;;;3.37;;
22435;SDS011;11385;50.822;4.324;2023-05-18T00:13:30;13.68;;;3.40;;
22435;SDS011;11385;50.822;4.324;2023-05-18T00:15:56;12.50;;;3.58;;
22435;SDS011;11385;50.822;4.324;2023-05-18T00:18:24;18.23;;;3.55;;
22435;SDS011;11385;50.822;4.324;2023-05-18T00:20:51;13.03;;;3.80;;
22435;SDS011;11385;50.822;4.324;2023-05-18T00:25:49;12.23;;;3.15;;
22435;SDS011;11385;50.822;4.324;2023-05-18T00:28:16;14.38;;;3.17;;
22435;SDS011;11385;50.822;4.324;2023-05-18T00:30:42;13.03;;;3.17;;
22435;SDS011;11385;50.822;4.324;2023-05-18T00:33:09;9.65;;;2.90;;
22435;SDS011;11385;50.822;4.324;2023-05-18T00:35:36;10.82;;;3.58;;
22435;SDS011;11385;50.822;4.324;2023-05-18T00:38:02;12.00;;;3.30;;
22435;SDS011;11385;50.822;4.324;2023-05-18T00:40:30;13.05;;;3.10;;
22435;SDS011;11385;50.822;4.324;2023-05-18T00:42:57;12.40;;;3.12;;
22435;SDS011;11385;50.822;4.324;2023-05-18T00:45:25;13.55;;;3.35;;
22435;SDS011;11385;50.822;4.324;2023-05-18T00:47:52;12.95;;;3.08;;
22435;SDS011;11385;50.822;4.324;2023-05-18T00:50:18;9.23;;;2.87;;
22435;SDS011;11385;50.822;4.324;2023-05-18T00:52:45;13.20;;;2.98;;
22435;SDS011;11385;50.822;4.324;2023-05-18T00:55:13;10.38;;;3.42;;
22435;SDS011;11385;50.822;4.324;2023-05-18T00:57:39;11.45;;;3.12;;
22435;SDS011;11385;50.822;4.324;2023-05-18T01:00:09;10.13;;;2.77;;
22435;SDS011;11385;50.822;4.324;2023-05-18T01:02:39;13.85;;;3.80;;
22435;SDS011;11385;50.822;4.324;2023-05-18T01:05:10;9.80;;;2.67;;
22435;SDS011;11385;50.822;4.324;2023-05-18T01:07:39;10.78;;;3.25;;
22435;SDS011;11385;50.822;4.324;2023-05-18T01:10:08;10.78;;;2.85;;
22435;SDS011;11385;50.822;4.324;2023-05-18T01:12:38;14.05;;;3.45;;
22435;SDS011;11385;50.822;4.324;2023-05-18T01:15:07;14.00;;;3.27;;
22435;SDS011;11385;50.822;4.324;2023-05-18T01:17:50;15.65;;;3.60;;
22435;SDS011;11385;50.822;4.324;2023-05-18T01:23:01;11.35;;;3.67;;
22435;SDS011;11385;50.822;4.324;2023-05-18T01:25:33;8.65;;;3.25;;
22435;SDS011;11385;50.822;4.324;2023-05-18T01:28:19;9.13;;;2.95;;
22435;SDS011;11385;50.822;4.324;2023-05-18T01:30:50;9.93;;;3.00;;
22435;SDS011;11385;50.822;4.324;2023-05-18T01:33:17;13.83;;;3.35;;
22435;SDS011;11385;50.822;4.324;2023-05-18T01:35:44;11.15;;;3.37;;
22435;SDS011;11385;50.822;4.324;2023-05-18T01:38:14;17.52;;;2.98;;
22435;SDS011;11385;50.822;4.324;2023-05-18T01:43:35;11.70;;;3.17;;
22435;SDS011;11385;50.822;4.324;2023-05-18T01:46:04;11.83;;;3.42;;
22435;SDS011;11385;50.822;4.324;2023-05-18T01:48:53;11.45;;;3.30;;
22435;SDS011;11385;50.822;4.324;2023-05-18T01:51:21;12.28;;;3.30;;
22435;SDS011;11385;50.822;4.324;2023-05-18T01:53:54;9.73;;;3.00;;
22435;SDS011;11385;50.822;4.324;2023-05-18T01:56:22;9.25;;;2.85;;
22435;SDS011;11385;50.822;4.324;2023-05-18T01:58:51;11.50;;;4.45;;
22435;SDS011;11385;50.822;4.324;2023-05-18T02:01:18;8.83;;;2.90;;
22435;SDS011;11385;50.822;4.324;2023-05-18T02:03:47;11.38;;;3.02;;
22435;SDS011;11385;50.822;4.324;2023-05-18T02:06:13;11.50;;;3.70;;
22435;SDS011;11385;50.822;4.324;2023-05-18T02:08:40;11.75;;;3.58;;
22435;SDS011;11385;50.822;4.324;2023-05-18T02:11:09;10.50;;;3.30;;
22435;SDS011;11385;50.822;4.324;2023-05-18T02:13:37;9.15;;;3.17;;
22435;SDS011;11385;50.822;4.324;2023-05-18T02:16:04;10.40;;;2.95;;
22435;SDS011;11385;50.822;4.324;2023-05-18T02:18:31;12.25;;;3.12;;
22435;SDS011;11385;50.822;4.324;2023-05-18T02:20:59;11.08;;;2.90;;
22435;SDS011;11385;50.822;4.324;2023-05-18T02:23:25;11.08;;;3.67;;
22435;SDS011;11385;50.822;4.324;2023-05-18T02:25:52;8.40;;;3.27;;
22435;SDS011;11385;50.822;4.324;2023-05-18T02:28:21;15.28;;;4.35;;
22435;SDS011;11385;50.822;4.324;2023-05-18T02:30:48;10.10;;;3.35;;
22435;SDS011;11385;50.822;4.324;2023-05-18T02:33:16;10.53;;;4.15;;
22435;SDS011;11385;50.822;4.324;2023-05-18T02:35:44;11.60;;;3.15;;
22435;SDS011;11385;50.822;4.324;2023-05-18T02:38:12;13.15;;;3.70;;
22435;SDS011;11385;50.822;4.324;2023-05-18T02:40:40;15.38;;;4.17;;
22435;SDS011;11385;50.822;4.324;2023-05-18T02:43:07;14.73;;;3.67;;
22435;SDS011;11385;50.822;4.324;2023-05-18T02:45:33;12.75;;;3.92;;
22435;SDS011;11385;50.822;4.324;2023-05-18T02:48:00;11.57;;;4.55;;
22435;SDS011;11385;50.822;4.324;2023-05-18T02:50:28;10.75;;;3.33;;
22435;SDS011;11385;50.822;4.324;2023-05-18T02:52:55;11.22;;;3.75;;
22435;SDS011;11385;50.822;4.324;2023-05-18T02:55:22;12.15;;;4.20;;
22435;SDS011;11385;50.822;4.324;2023-05-18T02:57:49;11.78;;;3.45;;
22435;SDS011;11385;50.822;4.324;2023-05-18T03:00:17;8.45;;;3.47;;
22435;SDS011;11385;50.822;4.324;2023-05-18T03:02:45;15.48;;;4.05;;
22435;SDS011;11385;50.822;4.324;2023-05-18T03:05:12;13.60;;;3.80;;
22435;SDS011;11385;50.822;4.324;2023-05-18T03:07:41;10.03;;;3.37;;
22435;SDS011;11385;50.822;4.324;2023-05-18T03:10:09;12.43;;;3.77;;
22435;SDS011;11385;50.822;4.324;2023-05-18T03:12:37;11.70;;;3.70;;
22435;SDS011;11385;50.822;4.324;2023-05-18T03:15:04;13.43;;;4.37;;
22435;SDS011;11385;50.822;4.324;2023-05-18T03:17:31;17.50;;;4.58;;
22435;SDS011;11385;50.822;4.324;2023-05-18T03:19:58;13.65;;;5.35;;
22435;SDS011;11385;50.822;4.324;2023-05-18T03:22:27;12.45;;;4.35;;
22435;SDS011;11385;50.822;4.324;2023-05-18T03:24:55;12.58;;;3.90;;
22435;SDS011;11385;50.822;4.324;2023-05-18T03:27:21;15.18;;;4.33;;
22435;SDS011;11385;50.822;4.324;2023-05-18T03:29:51;12.98;;;4.47;;
22435;SDS011;11385;50.822;4.324;2023-05-18T03:32:21;14.87;;;3.77;;
22435;SDS011;11385;50.822;4.324;2023-05-18T03:34:51;12.40;;;3.65;;
22435;SDS011;11385;50.822;4.324;2023-05-18T03:37:19;11.10;;;4.20;;
22435;SDS011;11385;50.822;4.324;2023-05-18T03:39:46;11.25;;;3.95;;
22435;SDS011;11385;50.822;4.324;2023-05-18T03:42:13;14.03;;;3.80;;
22435;SDS011;11385;50.822;4.324;2023-05-18T03:44:40;12.35;;;4.87;;
22435;SDS011;11385;50.822;4.324;2023-05-18T03:47:07;12.55;;;3.58;;
22435;SDS011;11385;50.822;4.324;2023-05-18T03:49:34;9.63;;;3.70;;
22435;SDS011;11385;50.822;4.324;2023-05-18T03:52:02;10.85;;;3.58;;
22435;SDS011;11385;50.822;4.324;2023-05-18T03:54:29;13.93;;;3.80;;
22435;SDS011;11385;50.822;4.324;2023-05-18T03:56:57;12.63;;;4.05;;
22435;SDS011;11385;50.822;4.324;2023-05-18T03:59:23;12.40;;;4.10;;
22435;SDS011;11385;50.822;4.324;2023-05-18T04:01:50;12.20;;;4.40;;
22435;SDS011;11385;50.822;4.324;2023-05-18T04:04:18;13.83;;;4.60;;
22435;SDS011;11385;50.822;4.324;2023-05-18T04:06:48;12.80;;;3.95;;
22435;SDS011;11385;50.822;4.324;2023-05-18T04:09:17;14.68;;;4.28;;
22435;SDS011;11385;50.822;4.324;2023-05-18T04:11:46;11.85;;;4.15;;
22435;SDS011;11385;50.822;4.324;2023-05-18T04:14:13;14.55;;;4.30;;
22435;SDS011;11385;50.822;4.324;2023-05-18T04:16:42;15.38;;;4.70;;
22435;SDS011;11385;50.822;4.324;2023-05-18T04:19:10;15.45;;;5.17;;
22435;SDS011;11385;50.822;4.324;2023-05-18T04:21:37;10.75;;;4.22;;
22435;SDS011;11385;50.822;4.324;2023-05-18T04:24:08;12.43;;;4.15;;
22435;SDS011;11385;50.822;4.324;2023-05-18T04:26:36;12.47;;;5.15;;
22435;SDS011;11385;50.822;4.324;2023-05-18T04:29:05;13.62;;;4.35;;
22435;SDS011;11385;50.822;4.324;2023-05-18T04:31:32;11.63;;;3.83;;
22435;SDS011;11385;50.822;4.324;2023-05-18T04:34:00;13.40;;;4.65;;
22435;SDS011;11385;50.822;4.324;2023-05-18T04:36:27;12.93;;;4.53;;
22435;SDS011;11385;50.822;4.324;2023-05-18T04:38:56;14.05;;;4.62;;
22435;SDS011;11385;50.822;4.324;2023-05-18T04:41:24;11.38;;;4.92;;
22435;SDS011;11385;50.822;4.324;2023-05-18T04:43:51;13.65;;;4.80;;
22435;SDS011;11385;50.822;4.324;2023-05-18T04:46:19;15.50;;;4.40;;
22435;SDS011;11385;50.822;4.324;2023-05-18T04:48:47;15.38;;;4.10;;
22435;SDS011;11385;50.822;4.324;2023-05-18T04:51:15;9.40;;;4.58;;
22435;SDS011;11385;50.822;4.324;2023-05-18T04:53:44;14.45;;;4.60;;
22435;SDS011;11385;50.822;4.324;2023-05-18T04:56:16;15.23;;;5.03;;
22435;SDS011;11385;50.822;4.324;2023-05-18T04:58:45;11.70;;;4.92;;
22435;SDS011;11385;50.822;4.324;2023-05-18T05:01:13;11.38;;;4.78;;
22435;SDS011;11385;50.822;4.324;2023-05-18T05:03:41;14.33;;;5.12;;
22435;SDS011;11385;50.822;4.324;2023-05-18T05:06:08;11.63;;;5.78;;
22435;SDS011;11385;50.822;4.324;2023-05-18T05:08:37;9.10;;;4.17;;
22435;SDS011;11385;50.822;4.324;2023-05-18T05:11:04;12.65;;;5.17;;
22435;SDS011;11385;50.822;4.324;2023-05-18T05:13:31;10.72;;;4.97;;
22435;SDS011;11385;50.822;4.324;2023-05-18T05:16:00;17.07;;;5.30;;
22435;SDS011;11385;50.822;4.324;2023-05-18T05:18:27;16.05;;;5.55;;
22435;SDS011;11385;50.822;4.324;2023-05-18T05:20:54;11.60;;;4.95;;
22435;SDS011;11385;50.822;4.324;2023-05-18T05:23:21;15.68;;;4.95;;
22435;SDS011;11385;50.822;4.324;2023-05-18T05:25:47;13.80;;;5.22;;
22435;SDS011;11385;50.822;4.324;2023-05-18T05:28:15;11.88;;;5.47;;
22435;SDS011;11385;50.822;4.324;2023-05-18T05:30:42;14.28;;;4.72;;
22435;SDS011;11385;50.822;4.324;2023-05-18T05:33:09;9.53;;;4.78;;
22435;SDS011;11385;50.822;4.324;2023-05-18T05:35:36;16.93;;;5.35;;
22435;SDS011;11385;50.822;4.324;2023-05-18T05:38:03;12.85;;;5.28;;
22435;SDS011;11385;50.822;4.324;2023-05-18T05:40:30;13.13;;;5.05;;
22435;SDS011;11385;50.822;4.324;2023-05-18T05:42:58;15.85;;;4.75;;
22435;SDS011;11385;50.822;4.324;2023-05-18T05:45:24;12.00;;;4.87;;
22435;SDS011;11385;50.822;4.324;2023-05-18T05:47:53;10.13;;;4.55;;
22435;SDS011;11385;50.822;4.324;2023-05-18T05:50:19;15.95;;;5.83;;
22435;SDS011;11385;50.822;4.324;2023-05-18T05:52:46;15.32;;;4.83;;
22435;SDS011;11385;50.822;4.324;2023-05-18T05:55:13;16.27;;;5.67;;
22435;SDS011;11385;50.822;4.324;2023-05-18T05:57:40;18.10;;;5.17;;
22435;SDS011;11385;50.822;4.324;2023-05-18T06:00:08;15.15;;;5.65;;
22435;SDS011;11385;50.822;4.324;2023-05-18T06:02:38;14.87;;;5.35;;
22435;SDS011;11385;50.822;4.324;2023-05-18T06:05:05;14.68;;;5.42;;
22435;SDS011;11385;50.822;4.324;2023-05-18T06:07:33;12.78;;;5.20;;
22435;SDS011;11385;50.822;4.324;2023-05-18T06:10:00;12.85;;;5.47;;
22435;SDS011;11385;50.822;4.324;2023-05-18T06:12:27;12.20;;;5.20;;
22435;SDS011;11385;50.822;4.324;2023-05-18T06:14:55;10.15;;;5.17;;
22435;SDS011;11385;50.822;4.324;2023-05-18T06:17:24;12.78;;;5.03;;
22435;SDS011;11385;50.822;4.324;2023-05-18T06:19:51;10.93;;;4.80;;
22435;SDS011;11385;50.822;4.324;2023-05-18T06:22:19;10.88;;;4.97;;
22435;SDS011;11385;50.822;4.324;2023-05-18T06:24:46;12.90;;;5.15;;
22435;SDS011;11385;50.822;4.324;2023-05-18T06:27:12;14.60;;;5.55;;
22435;SDS011;11385;50.822;4.324;2023-05-18T06:29:39;16.55;;;5.60;;
22435;SDS011;11385;50.822;4.324;2023-05-18T06:32:06;14.03;;;6.28;;
22435;SDS011;11385;50.822;4.324;2023-05-18T06:34:33;13.48;;;5.78;;
22435;SDS011;11385;50.822;4.324;2023-05-18T06:36:59;16.45;;;5.25;;
22435;SDS011;11385;50.822;4.324;2023-05-18T06:39:26;13.30;;;5.30;;
22435;SDS011;11385;50.822;4.324;2023-05-18T06:41:53;18.17;;;5.92;;
22435;SDS011;11385;50.822;4.324;2023-05-18T06:44:20;11.75;;;5.00;;
22435;SDS011;11385;50.822;4.324;2023-05-18T06:46:47;13.98;;;5.90;;
22435;SDS011;11385;50.822;4.324;2023-05-18T06:49:14;13.35;;;5.95;;
22435;SDS011;11385;50.822;4.324;2023-05-18T06:51:40;15.15;;;4.97;;
22435;SDS011;11385;50.822;4.324;2023-05-18T06:54:08;10.82;;;4.85;;
22435;SDS011;11385;50.822;4.324;2023-05-18T06:56:34;12.18;;;5.78;;
22435;SDS011;11385;50.822;4.324;2023-05-18T06:59:01;15.60;;;6.10;;
22435;SDS011;11385;50.822;4.324;2023-05-18T07:01:28;15.00;;;5.78;;
22435;SDS011;11385;50.822;4.324;2023-05-18T07:03:55;10.55;;;5.20;;
22435;SDS011;11385;50.822;4.324;2023-05-18T07:06:21;15.53;;;6.10;;
22435;SDS011;11385;50.822;4.324;2023-05-18T07:08:48;12.98;;;5.78;;
22435;SDS011;11385;50.822;4.324;2023-05-18T07:11:15;12.95;;;5.83;;
22435;SDS011;11385;50.822;4.324;2023-05-18T07:13:41;11.08;;;5.60;;
22435;SDS011;11385;50.822;4.324;2023-05-18T07:16:08;12.18;;;5.80;;
22435;SDS011;11385;50.822;4.324;2023-05-18T07:18:36;16.77;;;6.33;;
22435;SDS011;11385;50.822;4.324;2023-05-18T07:21:03;17.87;;;8.40;;
22435;SDS011;11385;50.822;4.324;2023-05-18T07:23:30;11.08;;;5.35;;
22435;SDS011;11385;50.822;4.324;2023-05-18T07:25:57;16.82;;;5.70;;
22435;SDS011;11385;50.822;4.324;2023-05-18T07:28:24;15.30;;;7.78;;
22435;SDS011;11385;50.822;4.324;2023-05-18T07:30:50;14.98;;;6.87;;
22435;SDS011;11385;50.822;4.324;2023-05-18T07:33:17;19.00;;;10.53;;
22435;SDS011;11385;50.822;4.324;2023-05-18T07:35:44;15.93;;;6.60;;
22435;SDS011;11385;50.822;4.324;2023-05-18T07:38:11;13.48;;;5.83;;
22435;SDS011;11385;50.822;4.324;2023-05-18T07:40:37;13.80;;;5.65;;
22435;SDS011;11385;50.822;4.324;2023-05-18T07:43:04;13.88;;;6.42;;
22435;SDS011;11385;50.822;4.324;2023-05-18T07:45:31;11.57;;;6.12;;
22435;SDS011;11385;50.822;4.324;2023-05-18T07:47:58;14.47;;;6.10;;
22435;SDS011;11385;50.822;4.324;2023-05-18T07:50:26;13.30;;;5.58;;
22435;SDS011;11385;50.822;4.324;2023-05-18T07:52:54;12.55;;;5.83;;
22435;SDS011;11385;50.822;4.324;2023-05-18T07:55:21;15.50;;;6.83;;
22435;SDS011;11385;50.822;4.324;2023-05-18T07:57:48;14.15;;;6.10;;
22435;SDS011;11385;50.822;4.324;2023-05-18T08:00:15;14.40;;;7.37;;
22435;SDS011;11385;50.822;4.324;2023-05-18T08:02:42;15.85;;;6.97;;
22435;SDS011;11385;50.822;4.324;2023-05-18T08:05:10;13.93;;;5.87;;
22435;SDS011;11385;50.822;4.324;2023-05-18T08:07:37;15.45;;;6.42;;
22435;SDS011;11385;50.822;4.324;2023-05-18T08:10:04;13.58;;;6.55;;
22435;SDS011;11385;50.822;4.324;2023-05-18T08:12:31;13.22;;;6.72;;
22435;SDS011;11385;50.822;4.324;2023-05-18T08:14:58;14.43;;;6.37;;
22435;SDS011;11385;50.822;4.324;2023-05-18T08:17:25;13.18;;;6.15;;
22435;SDS011;11385;50.822;4.324;2023-05-18T08:19:52;15.28;;;6.55;;
22435;SDS011;11385;50.822;4.324;2023-05-18T08:22:20;12.75;;;5.80;;
22435;SDS011;11385;50.822;4.324;2023-05-18T08:24:48;12.55;;;5.80;;
22435;SDS011;11385;50.822;4.324;2023-05-18T08:27:15;12.85;;;6.28;;
22435;SDS011;11385;50.822;4.324;2023-05-18T08:29:42;12.07;;;6.40;;
22435;SDS011;11385;50.822;4.324;2023-05-18T08:32:08;18.57;;;6.30;;
22435;SDS011;11385;50.822;4.324;2023-05-18T08:34:35;15.90;;;6.35;;
22435;SDS011;11385;50.822;4.324;2023-05-18T08:37:02;17.27;;;6.67;;
22435;SDS011;11385;50.822;4.324;2023-05-18T08:39:29;15.75;;;6.65;;
22435;SDS011;11385;50.822;4.324;2023-05-18T08:42:28;16.62;;;5.65;;
22435;SDS011;11385;50.822;4.324;2023-05-18T08:47:17;11.57;;;6.05;;
22435;SDS011;11385;50.822;4.324;2023-05-18T08:52:16;15.53;;;5.70;;
22435;SDS011;11385;50.822;4.324;2023-05-18T08:54:44;16.17;;;6.05;;
22435;SDS011;11385;50.822;4.324;2023-05-18T08:57:13;11.12;;;5.65;;
22435;SDS011;11385;50.822;4.324;2023-05-18T08:59:41;15.25;;;5.55;;
22435;SDS011;11385;50.822;4.324;2023-05-18T09:02:10;12.20;;;5.53;;
22435;SDS011;11385;50.822;4.324;2023-05-18T09:04:38;11.55;;;5.00;;
22435;SDS011;11385;50.822;4.324;2023-05-18T09:07:08;14.13;;;5.50;;
22435;SDS011;11385;50.822;4.324;2023-05-18T09:09:36;14.38;;;5.28;;
22435;SDS011;11385;50.822;4.324;2023-05-18T09:12:03;12.20;;;5.55;;
22435;SDS011;11385;50.822;4.324;2023-05-18T09:14:31;12.50;;;4.87;;
22435;SDS011;11385;50.822;4.324;2023-05-18T09:16:59;16.02;;;5.47;;
22435;SDS011;11385;50.822;4.324;2023-05-18T09:19:26;11.03;;;4.62;;
22435;SDS011;11385;50.822;4.324;2023-05-18T09:21:53;13.55;;;4.25;;
22435;SDS011;11385;50.822;4.324;2023-05-18T09:24:20;10.70;;;4.00;;
22435;SDS011;11385;50.822;4.324;2023-05-18T09:26:46;14.47;;;4.70;;
22435;SDS011;11385;50.822;4.324;2023-05-18T09:29:14;13.78;;;4.97;;
22435;SDS011;11385;50.822;4.324;2023-05-18T09:31:42;12.13;;;5.15;;
22435;SDS011;11385;50.822;4.324;2023-05-18T09:34:11;15.13;;;5.00;;
22435;SDS011;11385;50.822;4.324;2023-05-18T09:36:38;12.53;;;4.70;;
22435;SDS011;11385;50.822;4.324;2023-05-18T09:39:08;10.20;;;4.17;;
22435;SDS011;11385;50.822;4.324;2023-05-18T09:41:37;17.77;;;4.78;;
22435;SDS011;11385;50.822;4.324;2023-05-18T09:44:05;11.35;;;4.65;;
22435;SDS011;11385;50.822;4.324;2023-05-18T09:46:34;11.03;;;3.47;;
22435;SDS011;11385;50.822;4.324;2023-05-18T09:49:02;14.73;;;3.95;;
22435;SDS011;11385;50.822;4.324;2023-05-18T09:51:35;10.78;;;3.75;;
22435;SDS011;11385;50.822;4.324;2023-05-18T09:54:03;11.22;;;4.03;;
22435;SDS011;11385;50.822;4.324;2023-05-18T09:56:35;14.33;;;4.10;;
22435;SDS011;11385;50.822;4.324;2023-05-18T09:59:07;11.30;;;3.40;;
22435;SDS011;11385;50.822;4.324;2023-05-18T10:01:36;9.10;;;3.45;;
22435;SDS011;11385;50.822;4.324;2023-05-18T10:04:06;10.90;;;3.62;;
22435;SDS011;11385;50.822;4.324;2023-05-18T10:06:33;10.08;;;3.30;;
22435;SDS011;11385;50.822;4.324;2023-05-18T10:09:00;8.90;;;3.47;;
22435;SDS011;11385;50.822;4.324;2023-05-18T10:11:30;10.75;;;3.95;;
22435;SDS011;11385;50.822;4.324;2023-05-18T10:13:58;8.90;;;3.65;;
22435;SDS011;11385;50.822;4.324;2023-05-18T10:16:24;7.95;;;3.75;;
22435;SDS011;11385;50.822;4.324;2023-05-18T10:18:51;9.88;;;3.80;;
22435;SDS011;11385;50.822;4.324;2023-05-18T10:21:20;15.43;;;4.30;;
22435;SDS011;11385;50.822;4.324;2023-05-18T10:23:51;12.82;;;3.95;;
22435;SDS011;11385;50.822;4.324;2023-05-18T10:26:18;11.45;;;4.47;;
22435;SDS011;11385;50.822;4.324;2023-05-18T10:28:48;10.38;;;4.25;;
22435;SDS011;11385;50.822;4.324;2023-05-18T10:31:17;12.03;;;4.35;;
22435;SDS011;11385;50.822;4.324;2023-05-18T10:33:45;12.50;;;4.60;;
22435;SDS011;11385;50.822;4.324;2023-05-18T10:36:12;10.43;;;4.15;;
22435;SDS011;11385;50.822;4.324;2023-05-18T10:38:40;9.90;;;3.85;;
22435;SDS011;11385;50.822;4.324;2023-05-18T10:41:10;12.25;;;5.22;;
22435;SDS011;11385;50.822;4.324;2023-05-18T10:43:39;12.20;;;4.60;;
22435;SDS011;11385;50.822;4.324;2023-05-18T10:46:06;13.45;;;4.30;;
22435;SDS011;11385;50.822;4.324;2023-05-18T10:48:36;9.95;;;4.03;;
22435;SDS011;11385;50.822;4.324;2023-05-18T10:51:03;14.03;;;3.80;;
22435;SDS011;11385;50.822;4.324;2023-05-18T10:53:32;9.80;;;4.72;;
22435;SDS011;11385;50.822;4.324;2023-05-18T10:56:00;14.05;;;4.03;;
22435;SDS011;11385;50.822;4.324;2023-05-18T10:58:28;9.43;;;3.55;;
22435;SDS011;11385;50.822;4.324;2023-05-18T11:00:57;8.78;;;3.60;;
22435;SDS011;11385;50.822;4.324;2023-05-18T11:03:26;9.15;;;3.70;;
22435;SDS011;11385;50.822;4.324;2023-05-18T11:11:09;11.95;;;3.80;;
22435;SDS011;11385;50.822;4.324;2023-05-18T11:13:46;11.20;;;3.60;;
22435;SDS011;11385;50.822;4.324;2023-05-18T11:16:14;12.13;;;4.25;;
22435;SDS011;11385;50.822;4.324;2023-05-18T11:18:46;9.55;;;4.03;;
22435;SDS011;11385;50.822;4.324;2023-05-18T11:21:17;9.28;;;3.92;;
22435;SDS011;11385;50.822;4.324;2023-05-18T11:26:26;10.13;;;3.77;;
22435;SDS011;11385;50.822;4.324;2023-05-18T11:28:53;9.80;;;4.25;;
22435;SDS011;11385;50.822;4.324;2023-05-18T11:31:20;11.28;;;4.28;;
22435;SDS011;11385;50.822;4.324;2023-05-18T11:33:51;12.70;;;4.03;;
22435;SDS011;11385;50.822;4.324;2023-05-18T11:36:22;10.88;;;4.45;;
22435;SDS011;11385;50.822;4.324;2023-05-18T11:38:51;10.65;;;5.05;;
22435;SDS011;11385;50.822;4.324;2023-05-18T11:41:25;10.35;;;4.55;;
22435;SDS011;11385;50.822;4.324;2023-05-18T11:46:35;12.63;;;3.70;;
22435;SDS011;11385;50.822;4.324;2023-05-18T11:49:03;9.55;;;3.92;;
22435;SDS011;11385;50.822;4.324;2023-05-18T11:51:32;8.58;;;4.17;;
22435;SDS011;11385;50.822;4.324;2023-05-18T11:54:02;11.73;;;3.72;;
22435;SDS011;11385;50.822;4.324;2023-05-18T11:56:33;8.63;;;4.25;;
22435;SDS011;11385;50.822;4.324;2023-05-18T12:01:37;10.82;;;4.65;;
22435;SDS011;11385;50.822;4.324;2023-05-18T12:04:06;11.38;;;4.78;;
22435;SDS011;11385;50.822;4.324;2023-05-18T12:06:34;11.90;;;4.40;;
22435;SDS011;11385;50.822;4.324;2023-05-18T12:09:02;9.38;;;3.92;;
22435;SDS011;11385;50.822;4.324;2023-05-18T12:11:31;10.65;;;4.25;;
22435;SDS011;11385;50.822;4.324;2023-05-18T12:13:58;12.37;;;4.53;;
22435;SDS011;11385;50.822;4.324;2023-05-18T12:16:26;12.07;;;4.28;;
22435;SDS011;11385;50.822;4.324;2023-05-18T12:18:55;9.83;;;4.45;;
22435;SDS011;11385;50.822;4.324;2023-05-18T12:21:22;10.70;;;4.00;;
22435;SDS011;11385;50.822;4.324;2023-05-18T12:26:23;10.70;;;4.50;;
22435;SDS011;11385;50.822;4.324;2023-05-18T12:28:55;10.32;;;4.00;;
22435;SDS011;11385;50.822;4.324;2023-05-18T12:31:21;10.95;;;3.90;;
22435;SDS011;11385;50.822;4.324;2023-05-18T12:33:48;12.73;;;4.10;;
22435;SDS011;11385;50.822;4.324;2023-05-18T12:36:16;11.22;;;4.05;;
22435;SDS011;11385;50.822;4.324;2023-05-18T12:38:42;12.53;;;3.98;;
22435;SDS011;11385;50.822;4.324;2023-05-18T12:41:21;10.03;;;4.50;;
22435;SDS011;11385;50.822;4.324;2023-05-18T12:43:49;12.10;;;4.35;;
22435;SDS011;11385;50.822;4.324;2023-05-18T12:46:18;9.45;;;4.22;;
22435;SDS011;11385;50.822;4.324;2023-05-18T12:48:56;11.63;;;4.70;;
22435;SDS011;11385;50.822;4.324;2023-05-18T12:51:24;8.80;;;4.37;;
22435;SDS011;11385;50.822;4.324;2023-05-18T12:53:53;10.32;;;4.42;;
22435;SDS011;11385;50.822;4.324;2023-05-18T12:56:20;7.95;;;4.58;;
22435;SDS011;11385;50.822;4.324;2023-05-18T12:58:54;12.43;;;4.30;;
22435;SDS011;11385;50.822;4.324;2023-05-18T13:01:23;12.30;;;4.72;;
22435;SDS011;11385;50.822;4.324;2023-05-18T13:03:54;12.58;;;5.40;;
22435;SDS011;11385;50.822;4.324;2023-05-18T13:06:23;10.10;;;4.67;;
22435;SDS011;11385;50.822;4.324;2023-05-18T13:08:52;12.05;;;4.83;;
22435;SDS011;11385;50.822;4.324;2023-05-18T13:11:22;11.63;;;5.05;;
22435;SDS011;11385;50.822;4.324;2023-05-18T13:16:25;12.23;;;4.97;;
22435;SDS011;11385;50.822;4.324;2023-05-18T13:18:57;14.95;;;4.62;;
22435;SDS011;11385;50.822;4.324;2023-05-18T13:23:52;10.85;;;3.95;;
22435;SDS011;11385;50.822;4.324;2023-05-18T13:29:02;9.25;;;3.83;;
22435;SDS011;11385;50.822;4.324;2023-05-18T13:31:29;12.93;;;4.55;;
22435;SDS011;11385;50.822;4.324;2023-05-18T13:33:56;10.50;;;4.60;;
22435;SDS011;11385;50.822;4.324;2023-05-18T13:36:23;10.50;;;4.45;;
22435;SDS011;11385;50.822;4.324;2023-05-18T13:38:50;9.60;;;4.40;;
22435;SDS011;11385;50.822;4.324;2023-05-18T13:41:18;8.93;;;3.98;;
22435;SDS011;11385;50.822;4.324;2023-05-18T13:43:45;10.80;;;3.92;;
22435;SDS011;11385;50.822;4.324;2023-05-18T13:46:12;9.65;;;4.12;;
22435;SDS011;11385;50.822;4.324;2023-05-18T13:48:39;8.98;;;4.03;;
22435;SDS011;11385;50.822;4.324;2023-05-18T13:51:06;13.48;;;4.37;;
22435;SDS011;11385;50.822;4.324;2023-05-18T13:53:32;10.38;;;5.20;;
22435;SDS011;11385;50.822;4.324;2023-05-18T13:55:59;9.85;;;4.37;;
22435;SDS011;11385;50.822;4.324;2023-05-18T13:58:26;12.63;;;4.67;;
22435;SDS011;11385;50.822;4.324;2023-05-18T14:00:52;11.48;;;4.40;;
22435;SDS011;11385;50.822;4.324;2023-05-18T14:03:19;11.38;;;4.55;;
22435;SDS011;11385;50.822;4.324;2023-05-18T14:05:46;12.98;;;4.83;;
22435;SDS011;11385;50.822;4.324;2023-05-18T14:08:13;8.48;;;3.90;;
22435;SDS011;11385;50.822;4.324;2023-05-18T14:10:40;11.75;;;4.65;;
22435;SDS011;11385;50.822;4.324;2023-05-18T14:13:06;12.00;;;4.08;;
22435;SDS011;11385;50.822;4.324;2023-05-18T14:15:33;9.90;;;3.98;;
22435;SDS011;11385;50.822;4.324;2023-05-18T14:18:03;12.05;;;6.33;;
22435;SDS011;11385;50.822;4.324;2023-05-18T14:20:31;11.20;;;4.30;;
22435;SDS011;11385;50.822;4.324;2023-05-18T14:22:58;10.45;;;4.45;;
22435;SDS011;11385;50.822;4.324;2023-05-18T14:25:25;9.15;;;3.50;;
22435;SDS011;11385;50.822;4.324;2023-05-18T14:27:51;10.10;;;3.95;;
22435;SDS011;11385;50.822;4.324;2023-05-18T14:30:18;9.03;;;4.05;;
22435;SDS011;11385;50.822;4.324;2023-05-18T14:32:45;12.78;;;4.17;;
22435;SDS011;11385;50.822;4.324;2023-05-18T14:35:12;8.98;;;3.47;;
22435;SDS011;11385;50.822;4.324;2023-05-18T14:37:39;16.60;;;6.03;;
22435;SDS011;11385;50.822;4.324;2023-05-18T14:40:06;11.18;;;4.47;;
22435;SDS011;11385;50.822;4.324;2023-05-18T14:42:33;13.38;;;4.95;;
22435;SDS011;11385;50.822;4.324;2023-05-18T14:45:01;10.20;;;5.37;;
22435;SDS011;11385;50.822;4.324;2023-05-18T14:47:28;10.48;;;4.10;;
22435;SDS011;11385;50.822;4.324;2023-05-18T14:49:55;10.08;;;3.70;;
22435;SDS011;11385;50.822;4.324;2023-05-18T14:52:22;9.95;;;3.67;;
22435;SDS011;11385;50.822;4.324;2023-05-18T14:54:48;11.68;;;4.40;;
22435;SDS011;11385;50.822;4.324;2023-05-18T14:57:31;9.60;;;4.33;;
22435;SDS011;11385;50.822;4.324;2023-05-18T15:00:00;8.90;;;3.52;;
22435;SDS011;11385;50.822;4.324;2023-05-18T15:02:27;9.28;;;3.65;;
22435;SDS011;11385;50.822;4.324;2023-05-18T15:04:53;8.63;;;3.70;;
22435;SDS011;11385;50.822;4.324;2023-05-18T15:07:20;10.90;;;3.47;;
22435;SDS011;11385;50.822;4.324;2023-05-18T15:09:47;10.80;;;4.50;;
22435;SDS011;11385;50.822;4.324;2023-05-18T15:12:15;11.15;;;3.95;;
22435;SDS011;11385;50.822;4.324;2023-05-18T15:14:42;11.80;;;3.80;;
22435;SDS011;11385;50.822;4.324;2023-05-18T15:17:08;11.55;;;4.08;;